sensor_id;sensor_type;location;lat;lon;timestamp;pressure;altitude;pressure_sealevel;temperature;humidity
55685;BME280;41883;49.544;8.646;2023-02-13T00:01:52;102593.91;;;3.03;nan
55685;BME280;41883;49.544;8.646;2023-02-13T00:04:18;102593.94;;;3.02;nan
55685;BME280;41883;49.544;8.646;2023-02-13T00:06:43;102582.69;;;3.00;nan
55685;BME280;41883;49.544;8.646;2023-02-13T00:09:11;102588.84;;;2.98;nan
55685;BME280;41883;49.544;8.646;2023-02-13T00:11:36;102585.41;;;2.96;nan
55685;BME280;41883;49.544;8.646;2023-02-13T00:14:02;102581.09;;;2.95;nan
55685;BME280;41883;49.544;8.646;2023-02-13T00:16:27;102592.41;;;2.96;nan
55685;BME280;41883;49.544;8.646;2023-02-13T00:18:52;102585.25;;;3.01;nan
55685;BME280;41883;49.544;8.646;2023-02-13T00:21:17;102579.22;;;2.99;nan
55685;BME280;41883;49.544;8.646;2023-02-13T00:23:42;102581.84;;;2.99;nan
55685;BME280;41883;49.544;8.646;2023-02-13T00:26:09;102574.81;;;3.01;nan
55685;BME280;41883;49.544;8.646;2023-02-13T00:28:35;102576.31;;;3.08;nan
55685;BME280;41883;49.544;8.646;2023-02-13T00:31:04;102582.44;;;3.07;nan
55685;BME280;41883;49.544;8.646;2023-02-13T00:33:30;102578.13;;;3.06;nan
55685;BME280;41883;49.544;8.646;2023-02-13T00:36:09;102569.59;;;3.01;nan
55685;BME280;41883;49.544;8.646;2023-02-13T00:38:36;102582.03;;;2.93;nan
55685;BME280;41883;49.544;8.646;2023-02-13T00:41:01;102578.97;;;2.82;nan
55685;BME280;41883;49.544;8.646;2023-02-13T00:43:26;102578.63;;;2.64;nan
55685;BME280;41883;49.544;8.646;2023-02-13T00:45:52;102572.00;;;2.54;nan
55685;BME280;41883;49.544;8.646;2023-02-13T00:48:17;102575.13;;;2.39;nan
55685;BME280;41883;49.544;8.646;2023-02-13T00:50:42;102573.81;;;2.24;nan
55685;BME280;41883;49.544;8.646;2023-02-13T00:53:07;102575.72;;;2.19;nan
55685;BME280;41883;49.544;8.646;2023-02-13T00:55:33;102573.25;;;2.14;nan
55685;BME280;41883;49.544;8.646;2023-02-13T00:57:59;102576.06;;;2.08;nan
55685;BME280;41883;49.544;8.646;2023-02-13T01:00:24;102580.50;;;2.04;nan
55685;BME280;41883;49.544;8.646;2023-02-13T01:02:50;102574.53;;;2.01;nan
55685;BME280;41883;49.544;8.646;2023-02-13T01:05:15;102578.09;;;1.98;nan
55685;BME280;41883;49.544;8.646;2023-02-13T01:07:40;102579.13;;;1.92;nan
55685;BME280;41883;49.544;8.646;2023-02-13T01:10:05;102576.56;;;1.91;nan
55685;BME280;41883;49.544;8.646;2023-02-13T01:12:31;102580.16;;;1.87;nan
55685;BME280;41883;49.544;8.646;2023-02-13T01:14:56;102583.00;;;1.79;nan
55685;BME280;41883;49.544;8.646;2023-02-13T01:17:21;102579.69;;;1.74;nan
55685;BME280;41883;49.544;8.646;2023-02-13T01:19:46;102573.81;;;1.66;nan
55685;BME280;41883;49.544;8.646;2023-02-13T01:22:12;102579.97;;;1.63;nan
55685;BME280;41883;49.544;8.646;2023-02-13T01:24:37;102575.75;;;1.59;nan
55685;BME280;41883;49.544;8.646;2023-02-13T01:27:02;102581.16;;;1.53;nan
55685;BME280;41883;49.544;8.646;2023-02-13T01:29:28;102580.44;;;1.46;nan
55685;BME280;41883;49.544;8.646;2023-02-13T01:31:53;102578.09;;;1.37;nan
55685;BME280;41883;49.544;8.646;2023-02-13T01:34:18;102578.34;;;1.28;nan
55685;BME280;41883;49.544;8.646;2023-02-13T01:36:43;102581.91;;;1.24;nan
55685;BME280;41883;49.544;8.646;2023-02-13T01:39:09;102581.06;;;1.23;nan
55685;BME280;41883;49.544;8.646;2023-02-13T01:41:35;102581.78;;;1.28;nan
55685;BME280;41883;49.544;8.646;2023-02-13T01:44:00;102577.47;;;1.29;nan
55685;BME280;41883;49.544;8.646;2023-02-13T01:46:27;102579.28;;;1.25;nan
55685;BME280;41883;49.544;8.646;2023-02-13T01:48:57;102575.09;;;1.20;nan
55685;BME280;41883;49.544;8.646;2023-02-13T01:51:25;102571.75;;;1.15;nan
55685;BME280;41883;49.544;8.646;2023-02-13T01:53:55;102575.97;;;1.19;nan
55685;BME280;41883;49.544;8.646;2023-02-13T01:56:26;102577.53;;;1.26;nan
55685;BME280;41883;49.544;8.646;2023-02-13T01:58:53;102573.94;;;1.30;nan
55685;BME280;41883;49.544;8.646;2023-02-13T02:01:20;102573.09;;;1.30;nan
55685;BME280;41883;49.544;8.646;2023-02-13T02:03:54;102565.31;;;1.28;nan
55685;BME280;41883;49.544;8.646;2023-02-13T02:06:28;102572.25;;;1.29;nan
55685;BME280;41883;49.544;8.646;2023-02-13T02:08:55;102569.56;;;1.31;nan
55685;BME280;41883;49.544;8.646;2023-02-13T02:11:27;102571.22;;;1.35;nan
55685;BME280;41883;49.544;8.646;2023-02-13T02:13:55;102563.44;;;1.33;nan
55685;BME280;41883;49.544;8.646;2023-02-13T02:16:21;102568.63;;;1.33;nan
55685;BME280;41883;49.544;8.646;2023-02-13T02:18:47;102565.97;;;1.36;nan
55685;BME280;41883;49.544;8.646;2023-02-13T02:34:08;102557.91;;;1.45;nan
55685;BME280;41883;49.544;8.646;2023-02-13T02:44:42;102563.84;;;1.18;nan
55685;BME280;41883;49.544;8.646;2023-02-13T02:50:07;102560.56;;;1.10;nan
55685;BME280;41883;49.544;8.646;2023-02-13T02:52:41;102567.59;;;1.08;nan
55685;BME280;41883;49.544;8.646;2023-02-13T02:55:20;102570.22;;;1.08;nan
55685;BME280;41883;49.544;8.646;2023-02-13T02:57:52;102571.75;;;1.15;nan
55685;BME280;41883;49.544;8.646;2023-02-13T03:00:39;102559.13;;;1.32;nan
55685;BME280;41883;49.544;8.646;2023-02-13T03:03:24;102557.94;;;1.44;nan
55685;BME280;41883;49.544;8.646;2023-02-13T03:08:56;102569.78;;;1.56;nan
55685;BME280;41883;49.544;8.646;2023-02-13T03:11:42;102559.28;;;1.57;nan
55685;BME280;41883;49.544;8.646;2023-02-13T03:14:28;102572.16;;;1.63;nan
55685;BME280;41883;49.544;8.646;2023-02-13T03:16:53;102565.00;;;1.70;nan
55685;BME280;41883;49.544;8.646;2023-02-13T03:33:21;102579.81;;;2.27;nan
55685;BME280;41883;49.544;8.646;2023-02-13T03:36:01;102577.81;;;2.36;nan
55685;BME280;41883;49.544;8.646;2023-02-13T03:38:59;102585.47;;;2.42;nan
55685;BME280;41883;49.544;8.646;2023-02-13T03:41:33;102587.97;;;2.45;nan
55685;BME280;41883;49.544;8.646;2023-02-13T03:44:04;102588.88;;;2.44;nan
55685;BME280;41883;49.544;8.646;2023-02-13T03:46:34;102581.31;;;2.36;nan
55685;BME280;41883;49.544;8.646;2023-02-13T03:49:02;102587.69;;;2.26;nan
55685;BME280;41883;49.544;8.646;2023-02-13T03:51:52;102588.84;;;2.17;nan
55685;BME280;41883;49.544;8.646;2023-02-13T03:54:22;102586.50;;;2.08;nan
55685;BME280;41883;49.544;8.646;2023-02-13T03:57:07;102585.03;;;1.99;nan
55685;BME280;41883;49.544;8.646;2023-02-13T03:59:51;102587.78;;;1.93;nan
55685;BME280;41883;49.544;8.646;2023-02-13T04:02:17;102594.97;;;1.86;nan
55685;BME280;41883;49.544;8.646;2023-02-13T04:04:50;102582.22;;;1.76;nan
55685;BME280;41883;49.544;8.646;2023-02-13T04:07:17;102583.41;;;1.65;nan
55685;BME280;41883;49.544;8.646;2023-02-13T04:10:30;102590.50;;;1.60;nan
55685;BME280;41883;49.544;8.646;2023-02-13T04:18:04;102584.28;;;1.33;nan
55685;BME280;41883;49.544;8.646;2023-02-13T04:20:31;102588.03;;;1.23;nan
55685;BME280;41883;49.544;8.646;2023-02-13T04:22:56;102599.47;;;1.17;nan
55685;BME280;41883;49.544;8.646;2023-02-13T04:25:21;102590.16;;;1.09;nan
55685;BME280;41883;49.544;8.646;2023-02-13T04:27:47;102597.34;;;0.99;nan
55685;BME280;41883;49.544;8.646;2023-02-13T04:30:12;102593.28;;;0.89;nan
55685;BME280;41883;49.544;8.646;2023-02-13T04:32:37;102599.47;;;0.83;nan
55685;BME280;41883;49.544;8.646;2023-02-13T04:35:03;102598.81;;;0.75;nan
55685;BME280;41883;49.544;8.646;2023-02-13T04:37:28;102596.34;;;0.69;nan
55685;BME280;41883;49.544;8.646;2023-02-13T04:39:53;102589.53;;;0.65;nan
55685;BME280;41883;49.544;8.646;2023-02-13T04:42:19;102595.72;;;0.59;nan
55685;BME280;41883;49.544;8.646;2023-02-13T04:44:44;102588.09;;;0.51;nan
55685;BME280;41883;49.544;8.646;2023-02-13T04:47:09;102591.66;;;0.47;nan
55685;BME280;41883;49.544;8.646;2023-02-13T04:49:34;102595.25;;;0.41;nan
55685;BME280;41883;49.544;8.646;2023-02-13T04:51:59;102586.66;;;0.38;nan
55685;BME280;41883;49.544;8.646;2023-02-13T04:54:25;102578.16;;;0.31;nan
55685;BME280;41883;49.544;8.646;2023-02-13T04:56:50;102585.19;;;0.26;nan
55685;BME280;41883;49.544;8.646;2023-02-13T04:59:15;102580.16;;;0.18;nan
55685;BME280;41883;49.544;8.646;2023-02-13T05:01:40;102578.56;;;0.13;nan
55685;BME280;41883;49.544;8.646;2023-02-13T05:04:06;102583.00;;;0.08;nan
55685;BME280;41883;49.544;8.646;2023-02-13T05:06:31;102584.03;;;0.01;nan
55685;BME280;41883;49.544;8.646;2023-02-13T05:08:56;102593.31;;;0.12;nan
55685;BME280;41883;49.544;8.646;2023-02-13T05:11:21;102581.44;;;0.38;nan
55685;BME280;41883;49.544;8.646;2023-02-13T05:13:47;102589.66;;;0.58;nan
55685;BME280;41883;49.544;8.646;2023-02-13T05:16:12;102589.41;;;0.69;nan
55685;BME280;41883;49.544;8.646;2023-02-13T05:18:37;102580.66;;;0.72;nan
55685;BME280;41883;49.544;8.646;2023-02-13T05:21:02;102579.63;;;0.79;nan
55685;BME280;41883;49.544;8.646;2023-02-13T05:23:46;102581.63;;;1.02;nan
55685;BME280;41883;49.544;8.646;2023-02-13T05:26:12;102588.16;;;1.18;nan
55685;BME280;41883;49.544;8.646;2023-02-13T05:28:37;102577.53;;;1.26;nan
55685;BME280;41883;49.544;8.646;2023-02-13T05:31:21;102576.75;;;1.22;nan
55685;BME280;41883;49.544;8.646;2023-02-13T05:33:46;102593.47;;;1.14;nan
55685;BME280;41883;49.544;8.646;2023-02-13T05:36:11;102595.44;;;1.05;nan
55685;BME280;41883;49.544;8.646;2023-02-13T05:38:36;102589.53;;;0.99;nan
55685;BME280;41883;49.544;8.646;2023-02-13T05:41:02;102589.75;;;0.90;nan
55685;BME280;41883;49.544;8.646;2023-02-13T05:43:28;102581.31;;;0.80;nan
55685;BME280;41883;49.544;8.646;2023-02-13T05:46:00;102587.59;;;0.71;nan
55685;BME280;41883;49.544;8.646;2023-02-13T05:48:26;102585.16;;;0.65;nan
55685;BME280;41883;49.544;8.646;2023-02-13T05:50:52;102575.69;;;0.62;nan
55685;BME280;41883;49.544;8.646;2023-02-13T05:53:17;102575.75;;;0.59;nan
55685;BME280;41883;49.544;8.646;2023-02-13T05:55:42;102574.94;;;0.57;nan
55685;BME280;41883;49.544;8.646;2023-02-13T05:58:07;102576.66;;;0.58;nan
55685;BME280;41883;49.544;8.646;2023-02-13T06:00:33;102577.56;;;0.57;nan
55685;BME280;41883;49.544;8.646;2023-02-13T06:02:58;102582.81;;;0.54;nan
55685;BME280;41883;49.544;8.646;2023-02-13T06:05:24;102585.38;;;0.56;nan
55685;BME280;41883;49.544;8.646;2023-02-13T06:07:49;102585.50;;;0.51;nan
55685;BME280;41883;49.544;8.646;2023-02-13T06:10:14;102588.06;;;0.53;nan
55685;BME280;41883;49.544;8.646;2023-02-13T06:12:41;102588.19;;;0.48;nan
55685;BME280;41883;49.544;8.646;2023-02-13T06:15:06;102593.63;;;0.37;nan
55685;BME280;41883;49.544;8.646;2023-02-13T06:17:32;102586.94;;;0.26;nan
55685;BME280;41883;49.544;8.646;2023-02-13T06:19:57;102594.16;;;0.14;nan
55685;BME280;41883;49.544;8.646;2023-02-13T06:22:22;102595.09;;;0.10;nan
55685;BME280;41883;49.544;8.646;2023-02-13T06:24:47;102592.53;;;0.09;nan
55685;BME280;41883;49.544;8.646;2023-02-13T06:27:12;102595.19;;;0.07;nan
55685;BME280;41883;49.544;8.646;2023-02-13T06:29:38;102592.56;;;0.07;nan
55685;BME280;41883;49.544;8.646;2023-02-13T06:32:03;102594.19;;;0.11;nan
55685;BME280;41883;49.544;8.646;2023-02-13T06:34:29;102595.00;;;0.15;nan
55685;BME280;41883;49.544;8.646;2023-02-13T06:36:54;102595.84;;;0.15;nan
55685;BME280;41883;49.544;8.646;2023-02-13T06:39:19;102593.31;;;0.12;nan
55685;BME280;41883;49.544;8.646;2023-02-13T06:41:45;102590.75;;;0.09;nan
55685;BME280;41883;49.544;8.646;2023-02-13T06:44:11;102591.69;;;0.07;nan
55685;BME280;41883;49.544;8.646;2023-02-13T06:46:36;102594.38;;;0.04;nan
55685;BME280;41883;49.544;8.646;2023-02-13T06:49:02;102593.53;;;0.02;nan
55685;BME280;41883;49.544;8.646;2023-02-13T06:51:27;102596.19;;;0.00;nan
55685;BME280;41883;49.544;8.646;2023-02-13T06:53:52;102602.28;;;-0.01;nan
55685;BME280;41883;49.544;8.646;2023-02-13T06:56:17;102600.59;;;-0.04;nan
55685;BME280;41883;49.544;8.646;2023-02-13T06:58:43;102604.13;;;-0.06;nan
55685;BME280;41883;49.544;8.646;2023-02-13T07:01:08;102608.50;;;-0.08;nan
55685;BME280;41883;49.544;8.646;2023-02-13T07:03:33;102610.25;;;-0.10;nan
55685;BME280;41883;49.544;8.646;2023-02-13T07:05:58;102610.25;;;-0.10;nan
55685;BME280;41883;49.544;8.646;2023-02-13T07:08:24;102605.06;;;-0.10;nan
55685;BME280;41883;49.544;8.646;2023-02-13T07:10:49;102613.75;;;-0.11;nan
55685;BME280;41883;49.544;8.646;2023-02-13T07:13:14;102611.09;;;-0.10;nan
55685;BME280;41883;49.544;8.646;2023-02-13T07:15:42;102617.19;;;-0.09;nan
55685;BME280;41883;49.544;8.646;2023-02-13T07:18:08;102611.91;;;-0.05;nan
55685;BME280;41883;49.544;8.646;2023-02-13T07:20:34;102611.81;;;0.00;nan
55685;BME280;41883;49.544;8.646;2023-02-13T07:23:00;102619.47;;;0.05;nan
55685;BME280;41883;49.544;8.646;2023-02-13T07:25:26;102629.78;;;0.09;nan
55685;BME280;41883;49.544;8.646;2023-02-13T07:27:51;102611.34;;;0.20;nan
55685;BME280;41883;49.544;8.646;2023-02-13T07:30:16;102615.56;;;0.26;nan
55685;BME280;41883;49.544;8.646;2023-02-13T07:32:41;102621.47;;;0.34;nan
55685;BME280;41883;49.544;8.646;2023-02-13T07:35:07;102616.16;;;0.38;nan
55685;BME280;41883;49.544;8.646;2023-02-13T07:37:32;102615.91;;;0.49;nan
55685;BME280;41883;49.544;8.646;2023-02-13T07:39:57;102609.66;;;0.56;nan
55685;BME280;41883;49.544;8.646;2023-02-13T07:42:22;102616.41;;;0.65;nan
55685;BME280;41883;49.544;8.646;2023-02-13T07:44:48;102627.47;;;0.73;nan
55685;BME280;41883;49.544;8.646;2023-02-13T07:47:13;102616.88;;;0.81;nan
55685;BME280;41883;49.544;8.646;2023-02-13T07:49:38;102629.69;;;0.90;nan
55685;BME280;41883;49.544;8.646;2023-02-13T07:52:04;102627.78;;;0.97;nan
55685;BME280;41883;49.544;8.646;2023-02-13T07:54:29;102623.28;;;1.03;nan
55685;BME280;41883;49.544;8.646;2023-02-13T07:56:55;102622.22;;;1.12;nan
55685;BME280;41883;49.544;8.646;2023-02-13T07:59:20;102626.28;;;1.22;nan
55685;BME280;41883;49.544;8.646;2023-02-13T08:01:46;102629.47;;;1.34;nan
55685;BME280;41883;49.544;8.646;2023-02-13T08:04:11;102627.47;;;1.43;nan
55685;BME280;41883;49.544;8.646;2023-02-13T08:06:40;102625.41;;;1.55;nan
55685;BME280;41883;49.544;8.646;2023-02-13T08:09:05;102613.06;;;1.61;nan
55685;BME280;41883;49.544;8.646;2023-02-13T08:11:49;102617.19;;;1.68;nan
55685;BME280;41883;49.544;8.646;2023-02-13T08:14:22;102622.06;;;1.81;nan
55685;BME280;41883;49.544;8.646;2023-02-13T08:16:48;102614.78;;;1.94;nan
55685;BME280;41883;49.544;8.646;2023-02-13T08:19:13;102619.50;;;2.10;nan
55685;BME280;41883;49.544;8.646;2023-02-13T08:21:38;102618.06;;;2.28;nan
55685;BME280;41883;49.544;8.646;2023-02-13T08:24:04;102625.50;;;2.41;nan
55685;BME280;41883;49.544;8.646;2023-02-13T08:26:30;102623.50;;;2.50;nan
55685;BME280;41883;49.544;8.646;2023-02-13T08:28:56;102619.78;;;2.58;nan
55685;BME280;41883;49.544;8.646;2023-02-13T08:31:21;102626.53;;;2.65;nan
55685;BME280;41883;49.544;8.646;2023-02-13T08:33:46;102624.56;;;2.71;nan
55685;BME280;41883;49.544;8.646;2023-02-13T08:36:12;102627.94;;;2.75;nan
55685;BME280;41883;49.544;8.646;2023-02-13T08:38:37;102629.44;;;2.82;nan
55685;BME280;41883;49.544;8.646;2023-02-13T08:41:02;102625.56;;;2.94;nan
55685;BME280;41883;49.544;8.646;2023-02-13T08:43:27;102633.19;;;3.00;nan
55685;BME280;41883;49.544;8.646;2023-02-13T08:45:52;102620.75;;;3.08;nan
55685;BME280;41883;49.544;8.646;2023-02-13T08:48:18;102627.34;;;3.18;nan
55685;BME280;41883;49.544;8.646;2023-02-13T08:50:43;102622.63;;;3.30;nan
55685;BME280;41883;49.544;8.646;2023-02-13T08:53:08;102622.22;;;3.40;nan
55685;BME280;41883;49.544;8.646;2023-02-13T08:55:33;102615.03;;;3.47;nan
55685;BME280;41883;49.544;8.646;2023-02-13T08:58:02;102616.53;;;3.54;nan
55685;BME280;41883;49.544;8.646;2023-02-13T09:00:28;102617.88;;;3.65;nan
55685;BME280;41883;49.544;8.646;2023-02-13T09:02:53;102611.53;;;3.72;nan
55685;BME280;41883;49.544;8.646;2023-02-13T09:05:18;102613.88;;;3.79;nan
55685;BME280;41883;49.544;8.646;2023-02-13T09:07:44;102618.81;;;3.87;nan
55685;BME280;41883;49.544;8.646;2023-02-13T09:10:09;102622.06;;;3.94;nan
55685;BME280;41883;49.544;8.646;2023-02-13T09:12:34;102620.84;;;4.02;nan
55685;BME280;41883;49.544;8.646;2023-02-13T09:15:00;102609.25;;;4.10;nan
55685;BME280;41883;49.544;8.646;2023-02-13T09:17:25;102612.97;;;4.26;nan
55685;BME280;41883;49.544;8.646;2023-02-13T09:19:50;102608.63;;;4.49;nan
55685;BME280;41883;49.544;8.646;2023-02-13T09:22:15;102613.50;;;4.58;nan
55685;BME280;41883;49.544;8.646;2023-02-13T09:24:41;102611.53;;;4.63;nan
55685;BME280;41883;49.544;8.646;2023-02-13T09:27:06;102621.66;;;4.72;nan
55685;BME280;41883;49.544;8.646;2023-02-13T09:29:32;102613.38;;;4.81;nan
55685;BME280;41883;49.544;8.646;2023-02-13T09:31:57;102614.84;;;4.88;nan
55685;BME280;41883;49.544;8.646;2023-02-13T09:34:23;102610.94;;;4.99;nan
55685;BME280;41883;49.544;8.646;2023-02-13T09:36:51;102610.38;;;5.13;nan
55685;BME280;41883;49.544;8.646;2023-02-13T09:39:17;102615.19;;;5.22;nan
55685;BME280;41883;49.544;8.646;2023-02-13T09:41:42;102614.75;;;5.32;nan
55685;BME280;41883;49.544;8.646;2023-02-13T09:44:13;102613.69;;;5.37;nan
55685;BME280;41883;49.544;8.646;2023-02-13T09:46:58;102620.25;;;5.47;nan
55685;BME280;41883;49.544;8.646;2023-02-13T09:49:24;102620.03;;;5.51;nan
55685;BME280;41883;49.544;8.646;2023-02-13T09:51:53;102620.69;;;5.57;nan
55685;BME280;41883;49.544;8.646;2023-02-13T09:54:20;102627.63;;;5.58;nan
55685;BME280;41883;49.544;8.646;2023-02-13T09:59:38;102622.84;;;5.67;nan
55685;BME280;41883;49.544;8.646;2023-02-13T10:04:48;102626.47;;;5.84;nan
55685;BME280;41883;49.544;8.646;2023-02-13T10:07:29;102628.78;;;5.91;nan
55685;BME280;41883;49.544;8.646;2023-02-13T10:10:01;102626.47;;;6.04;nan
55685;BME280;41883;49.544;8.646;2023-02-13T10:12:33;102626.66;;;6.19;nan
55685;BME280;41883;49.544;8.646;2023-02-13T10:17:43;102623.88;;;6.41;nan
55685;BME280;41883;49.544;8.646;2023-02-13T10:20:21;102616.28;;;6.53;nan
55685;BME280;41883;49.544;8.646;2023-02-13T10:22:50;102616.97;;;6.57;nan
55685;BME280;41883;49.544;8.646;2023-02-13T10:27:43;102614.59;;;6.70;nan
55685;BME280;41883;49.544;8.646;2023-02-13T10:33:12;102617.94;;;6.91;nan
55685;BME280;41883;49.544;8.646;2023-02-13T10:35:44;102605.50;;;6.94;nan
55685;BME280;41883;49.544;8.646;2023-02-13T10:38:13;102609.69;;;6.98;nan
55685;BME280;41883;49.544;8.646;2023-02-13T10:40:40;102606.09;;;6.99;nan
55685;BME280;41883;49.544;8.646;2023-02-13T10:43:08;102609.19;;;7.08;nan
55685;BME280;41883;49.544;8.646;2023-02-13T10:48:03;102604.47;;;7.32;nan
55685;BME280;41883;49.544;8.646;2023-02-13T10:50:35;102599.09;;;7.33;nan
55685;BME280;41883;49.544;8.646;2023-02-13T11:00:45;102598.22;;;9.52;nan
55685;BME280;41883;49.544;8.646;2023-02-13T11:03:19;102599.34;;;12.02;nan
55685;BME280;41883;49.544;8.646;2023-02-13T11:05:44;102589.50;;;13.79;nan
55685;BME280;41883;49.544;8.646;2023-02-13T11:08:15;102587.53;;;15.73;nan
55685;BME280;41883;49.544;8.646;2023-02-13T11:10:41;102586.38;;;17.04;nan
55685;BME280;41883;49.544;8.646;2023-02-13T11:13:17;102582.53;;;18.36;nan
55685;BME280;41883;49.544;8.646;2023-02-13T11:15:53;102582.69;;;19.49;nan
55685;BME280;41883;49.544;8.646;2023-02-13T11:18:20;102576.94;;;20.45;nan
55685;BME280;41883;49.544;8.646;2023-02-13T11:20:46;102576.63;;;20.89;nan
55685;BME280;41883;49.544;8.646;2023-02-13T11:23:16;102566.47;;;21.16;nan
55685;BME280;41883;49.544;8.646;2023-02-13T11:25:52;102582.00;;;21.61;nan
55685;BME280;41883;49.544;8.646;2023-02-13T11:28:19;102574.13;;;22.14;nan
55685;BME280;41883;49.544;8.646;2023-02-13T11:30:45;102571.47;;;22.37;nan
55685;BME280;41883;49.544;8.646;2023-02-13T11:35:40;102569.50;;;21.69;nan
55685;BME280;41883;49.544;8.646;2023-02-13T11:40:34;102558.09;;;20.21;nan
55685;BME280;41883;49.544;8.646;2023-02-13T11:43:00;102562.59;;;19.53;nan
55685;BME280;41883;49.544;8.646;2023-02-13T11:45:26;102558.69;;;19.13;nan
55685;BME280;41883;49.544;8.646;2023-02-13T11:47:53;102546.97;;;18.26;nan
55685;BME280;41883;49.544;8.646;2023-02-13T11:50:24;102554.97;;;17.53;nan
55685;BME280;41883;49.544;8.646;2023-02-13T11:53:00;102548.28;;;16.92;nan
55685;BME280;41883;49.544;8.646;2023-02-13T11:55:39;102549.44;;;16.41;nan
55685;BME280;41883;49.544;8.646;2023-02-13T12:00:37;102549.72;;;15.37;nan
55685;BME280;41883;49.544;8.646;2023-02-13T12:03:24;102545.59;;;14.93;nan
55685;BME280;41883;49.544;8.646;2023-02-13T12:08:29;102535.13;;;14.15;nan
55685;BME280;41883;49.544;8.646;2023-02-13T12:10:56;102538.97;;;13.90;nan
55685;BME280;41883;49.544;8.646;2023-02-13T12:13:32;102541.06;;;13.53;nan
55685;BME280;41883;49.544;8.646;2023-02-13T12:16:10;102546.59;;;13.27;nan
55685;BME280;41883;49.544;8.646;2023-02-13T12:18:44;102539.53;;;13.04;nan
55685;BME280;41883;49.544;8.646;2023-02-13T12:24:03;102530.53;;;12.60;nan
55685;BME280;41883;49.544;8.646;2023-02-13T12:26:44;102532.53;;;12.45;nan
55685;BME280;41883;49.544;8.646;2023-02-13T12:34:53;102527.25;;;11.97;nan
55685;BME280;41883;49.544;8.646;2023-02-13T12:37:50;102518.22;;;11.86;nan
55685;BME280;41883;49.544;8.646;2023-02-13T12:40:38;102517.91;;;11.91;nan
55685;BME280;41883;49.544;8.646;2023-02-13T12:43:28;102520.25;;;11.83;nan
55685;BME280;41883;49.544;8.646;2023-02-13T12:52:39;102499.91;;;11.34;nan
55685;BME280;41883;49.544;8.646;2023-02-13T12:55:29;102502.69;;;11.32;nan
55685;BME280;41883;49.544;8.646;2023-02-13T13:00:44;102495.56;;;11.20;nan
55685;BME280;41883;49.544;8.646;2023-02-13T13:06:01;102486.06;;;11.04;nan
55685;BME280;41883;49.544;8.646;2023-02-13T13:11:32;102488.69;;;11.17;nan
55685;BME280;41883;49.544;8.646;2023-02-13T13:14:09;102487.31;;;11.12;nan
55685;BME280;41883;49.544;8.646;2023-02-13T13:19:24;102481.38;;;11.21;nan
55685;BME280;41883;49.544;8.646;2023-02-13T13:27:22;102469.81;;;11.22;nan
55685;BME280;41883;49.544;8.646;2023-02-13T13:30:01;102466.34;;;11.21;nan
55685;BME280;41883;49.544;8.646;2023-02-13T13:32:28;102468.47;;;11.16;nan
55685;BME280;41883;49.544;8.646;2023-02-13T13:34:55;102465.72;;;11.18;nan
55685;BME280;41883;49.544;8.646;2023-02-13T13:37:34;102461.78;;;11.23;nan
55685;BME280;41883;49.544;8.646;2023-02-13T13:48:44;102453.06;;;11.34;nan
55685;BME280;41883;49.544;8.646;2023-02-13T13:51:15;102452.97;;;11.36;nan
55685;BME280;41883;49.544;8.646;2023-02-13T13:56:26;102450.00;;;11.40;nan
55685;BME280;41883;49.544;8.646;2023-02-13T13:59:18;102448.91;;;11.43;nan
55685;BME280;41883;49.544;8.646;2023-02-13T14:01:44;102448.59;;;11.47;nan
55685;BME280;41883;49.544;8.646;2023-02-13T14:11:50;102435.97;;;11.51;nan
55685;BME280;41883;49.544;8.646;2023-02-13T14:16:59;102429.25;;;11.58;nan
55685;BME280;41883;49.544;8.646;2023-02-13T14:19:35;102428.09;;;11.62;nan
55685;BME280;41883;49.544;8.646;2023-02-13T14:22:32;102434.22;;;11.63;nan
55685;BME280;41883;49.544;8.646;2023-02-13T14:25:04;102428.72;;;11.66;nan
55685;BME280;41883;49.544;8.646;2023-02-13T14:27:36;102428.81;;;11.64;nan
55685;BME280;41883;49.544;8.646;2023-02-13T14:30:24;102427.06;;;11.52;nan
55685;BME280;41883;49.544;8.646;2023-02-13T14:32:51;102426.00;;;11.55;nan
55685;BME280;41883;49.544;8.646;2023-02-13T14:37:57;102427.56;;;11.57;nan
55685;BME280;41883;49.544;8.646;2023-02-13T14:40:30;102428.81;;;11.64;nan
55685;BME280;41883;49.544;8.646;2023-02-13T14:43:00;102425.44;;;11.62;nan
55685;BME280;41883;49.544;8.646;2023-02-13T14:45:35;102427.66;;;11.68;nan
55685;BME280;41883;49.544;8.646;2023-02-13T14:48:07;102421.72;;;11.65;nan
55685;BME280;41883;49.544;8.646;2023-02-13T14:50:51;102425.94;;;11.67;nan
55685;BME280;41883;49.544;8.646;2023-02-13T14:53:23;102421.84;;;11.63;nan
55685;BME280;41883;49.544;8.646;2023-02-13T14:55:57;102422.91;;;11.61;nan
55685;BME280;41883;49.544;8.646;2023-02-13T14:58:28;102420.88;;;11.64;nan
55685;BME280;41883;49.544;8.646;2023-02-13T15:00:59;102421.94;;;11.62;nan
55685;BME280;41883;49.544;8.646;2023-02-13T15:06:29;102421.53;;;11.55;nan
55685;BME280;41883;49.544;8.646;2023-02-13T15:08:59;102418.47;;;11.48;nan
55685;BME280;41883;49.544;8.646;2023-02-13T15:11:37;102420.28;;;11.48;nan
55685;BME280;41883;49.544;8.646;2023-02-13T15:14:34;102410.75;;;11.45;nan
55685;BME280;41883;49.544;8.646;2023-02-13T15:17:14;102422.53;;;11.41;nan
55685;BME280;41883;49.544;8.646;2023-02-13T15:19:47;102412.25;;;11.37;nan
55685;BME280;41883;49.544;8.646;2023-02-13T15:22:19;102423.09;;;11.34;nan
55685;BME280;41883;49.544;8.646;2023-02-13T15:24:47;102421.09;;;11.24;nan
55685;BME280;41883;49.544;8.646;2023-02-13T15:27:22;102422.28;;;11.20;nan
55685;BME280;41883;49.544;8.646;2023-02-13T15:32:40;102420.28;;;11.11;nan
55685;BME280;41883;49.544;8.646;2023-02-13T15:35:25;102423.47;;;11.03;nan
55685;BME280;41883;49.544;8.646;2023-02-13T15:37:51;102418.72;;;10.96;nan
55685;BME280;41883;49.544;8.646;2023-02-13T15:40:28;102416.84;;;10.85;nan
55685;BME280;41883;49.544;8.646;2023-02-13T15:42:55;102412.69;;;10.81;nan
55685;BME280;41883;49.544;8.646;2023-02-13T15:45:22;102416.72;;;10.74;nan
55685;BME280;41883;49.544;8.646;2023-02-13T15:47:50;102413.56;;;10.69;nan
55685;BME280;41883;49.544;8.646;2023-02-13T15:52:44;102406.47;;;10.56;nan